sensor_id;sensor_type;location;lat;lon;timestamp;P1;durP1;ratioP1;P2;durP2;ratioP2
15958;SDS011;8078;47.822;9.402;2022-07-29T00:02:24;3.80;;;2.00;;
15958;SDS011;8078;47.822;9.402;2022-07-29T00:04:50;2.40;;;2.10;;
15958;SDS011;8078;47.822;9.402;2022-07-29T00:07:16;2.30;;;2.05;;
15958;SDS011;8078;47.822;9.402;2022-07-29T00:09:41;3.60;;;1.90;;
15958;SDS011;8078;47.822;9.402;2022-07-29T00:12:07;4.47;;;2.40;;
15958;SDS011;8078;47.822;9.402;2022-07-29T00:14:32;2.17;;;1.98;;
15958;SDS011;8078;47.822;9.402;2022-07-29T00:16:58;2.47;;;2.25;;
15958;SDS011;8078;47.822;9.402;2022-07-29T00:19:24;2.80;;;2.60;;
15958;SDS011;8078;47.822;9.402;2022-07-29T00:21:49;3.17;;;2.80;;
15958;SDS011;8078;47.822;9.402;2022-07-29T00:24:15;4.10;;;3.35;;
15958;SDS011;8078;47.822;9.402;2022-07-29T00:26:40;3.20;;;2.90;;
15958;SDS011;8078;47.822;9.402;2022-07-29T00:29:06;3.80;;;3.42;;
15958;SDS011;8078;47.822;9.402;2022-07-29T00:31:31;3.97;;;3.13;;
15958;SDS011;8078;47.822;9.402;2022-07-29T00:33:57;3.80;;;3.20;;
15958;SDS011;8078;47.822;9.402;2022-07-29T00:36:22;5.13;;;3.10;;
15958;SDS011;8078;47.822;9.402;2022-07-29T00:38:51;3.50;;;3.20;;
15958;SDS011;8078;47.822;9.402;2022-07-29T00:41:17;4.25;;;2.78;;
15958;SDS011;8078;47.822;9.402;2022-07-29T00:43:44;3.58;;;3.20;;
15958;SDS011;8078;47.822;9.402;2022-07-29T00:46:09;6.07;;;2.90;;
15958;SDS011;8078;47.822;9.402;2022-07-29T00:48:35;3.10;;;2.80;;
15958;SDS011;8078;47.822;9.402;2022-07-29T00:51:01;2.83;;;2.63;;
15958;SDS011;8078;47.822;9.402;2022-07-29T00:53:29;4.10;;;2.50;;
15958;SDS011;8078;47.822;9.402;2022-07-29T00:55:55;2.92;;;2.67;;
15958;SDS011;8078;47.822;9.402;2022-07-29T00:58:22;3.42;;;3.13;;
15958;SDS011;8078;47.822;9.402;2022-07-29T01:00:49;5.95;;;3.45;;
15958;SDS011;8078;47.822;9.402;2022-07-29T01:03:14;3.25;;;2.90;;
15958;SDS011;8078;47.822;9.402;2022-07-29T01:05:40;5.18;;;3.60;;
15958;SDS011;8078;47.822;9.402;2022-07-29T01:08:07;4.00;;;3.60;;
15958;SDS011;8078;47.822;9.402;2022-07-29T01:10:35;4.43;;;3.75;;
15958;SDS011;8078;47.822;9.402;2022-07-29T01:13:04;4.57;;;3.83;;
15958;SDS011;8078;47.822;9.402;2022-07-29T01:15:30;4.25;;;3.75;;
15958;SDS011;8078;47.822;9.402;2022-07-29T01:26:29;3.05;;;2.83;;
15958;SDS011;8078;47.822;9.402;2022-07-29T01:29:24;3.67;;;3.00;;
15958;SDS011;8078;47.822;9.402;2022-07-29T01:32:02;6.32;;;3.28;;
15958;SDS011;8078;47.822;9.402;2022-07-29T01:34:42;6.60;;;2.85;;
15958;SDS011;8078;47.822;9.402;2022-07-29T01:37:22;3.10;;;2.78;;
15958;SDS011;8078;47.822;9.402;2022-07-29T01:39:52;4.03;;;2.92;;
15958;SDS011;8078;47.822;9.402;2022-07-29T01:42:26;2.83;;;2.55;;
15958;SDS011;8078;47.822;9.402;2022-07-29T01:45:02;3.42;;;2.85;;
15958;SDS011;8078;47.822;9.402;2022-07-29T01:47:38;2.80;;;2.60;;
15958;SDS011;8078;47.822;9.402;2022-07-29T01:50:07;3.72;;;2.60;;
15958;SDS011;8078;47.822;9.402;2022-07-29T01:52:37;2.70;;;2.10;;
15958;SDS011;8078;47.822;9.402;2022-07-29T01:55:08;2.50;;;2.30;;
15958;SDS011;8078;47.822;9.402;2022-07-29T01:57:38;2.60;;;1.85;;
15958;SDS011;8078;47.822;9.402;2022-07-29T02:00:07;4.32;;;1.85;;
15958;SDS011;8078;47.822;9.402;2022-07-29T02:02:33;2.75;;;1.90;;
15958;SDS011;8078;47.822;9.402;2022-07-29T02:05:03;2.03;;;1.88;;
15958;SDS011;8078;47.822;9.402;2022-07-29T02:07:31;2.13;;;1.90;;
15958;SDS011;8078;47.822;9.402;2022-07-29T02:09:57;2.45;;;2.17;;
15958;SDS011;8078;47.822;9.402;2022-07-29T02:12:25;2.35;;;2.08;;
15958;SDS011;8078;47.822;9.402;2022-07-29T02:14:53;2.85;;;2.15;;
15958;SDS011;8078;47.822;9.402;2022-07-29T02:17:22;3.00;;;2.05;;
15958;SDS011;8078;47.822;9.402;2022-07-29T02:19:51;2.75;;;2.17;;
15958;SDS011;8078;47.822;9.402;2022-07-29T02:22:20;2.53;;;2.22;;
15958;SDS011;8078;47.822;9.402;2022-07-29T02:24:47;3.28;;;2.28;;
15958;SDS011;8078;47.822;9.402;2022-07-29T02:27:15;2.22;;;1.90;;
15958;SDS011;8078;47.822;9.402;2022-07-29T02:29:44;2.92;;;2.15;;
15958;SDS011;8078;47.822;9.402;2022-07-29T02:32:11;2.88;;;2.00;;
15958;SDS011;8078;47.822;9.402;2022-07-29T02:34:39;2.88;;;2.25;;
15958;SDS011;8078;47.822;9.402;2022-07-29T02:37:07;3.20;;;2.00;;
15958;SDS011;8078;47.822;9.402;2022-07-29T02:39:34;3.65;;;2.20;;
15958;SDS011;8078;47.822;9.402;2022-07-29T02:42:03;2.20;;;2.00;;
15958;SDS011;8078;47.822;9.402;2022-07-29T02:44:32;2.65;;;2.20;;
15958;SDS011;8078;47.822;9.402;2022-07-29T02:49:48;3.95;;;2.05;;
15958;SDS011;8078;47.822;9.402;2022-07-29T02:54:57;5.13;;;2.30;;
15958;SDS011;8078;47.822;9.402;2022-07-29T02:57:28;2.65;;;2.42;;
15958;SDS011;8078;47.822;9.402;2022-07-29T03:00:01;2.80;;;2.10;;
15958;SDS011;8078;47.822;9.402;2022-07-29T03:02:31;4.32;;;2.38;;
15958;SDS011;8078;47.822;9.402;2022-07-29T03:05:06;3.25;;;2.20;;
15958;SDS011;8078;47.822;9.402;2022-07-29T03:07:35;2.40;;;2.20;;
15958;SDS011;8078;47.822;9.402;2022-07-29T03:10:03;3.08;;;2.40;;
15958;SDS011;8078;47.822;9.402;2022-07-29T03:12:31;2.65;;;2.40;;
15958;SDS011;8078;47.822;9.402;2022-07-29T03:14:57;2.22;;;2.03;;
15958;SDS011;8078;47.822;9.402;2022-07-29T03:17:24;2.20;;;1.92;;
15958;SDS011;8078;47.822;9.402;2022-07-29T03:19:50;2.22;;;2.03;;
15958;SDS011;8078;47.822;9.402;2022-07-29T03:22:16;2.28;;;1.98;;
15958;SDS011;8078;47.822;9.402;2022-07-29T03:24:41;3.22;;;2.22;;
15958;SDS011;8078;47.822;9.402;2022-07-29T03:27:07;2.20;;;2.00;;
15958;SDS011;8078;47.822;9.402;2022-07-29T03:29:33;3.75;;;2.10;;
15958;SDS011;8078;47.822;9.402;2022-07-29T03:31:58;2.67;;;2.10;;
15958;SDS011;8078;47.822;9.402;2022-07-29T03:34:24;2.53;;;2.33;;
15958;SDS011;8078;47.822;9.402;2022-07-29T03:36:50;2.42;;;2.20;;
15958;SDS011;8078;47.822;9.402;2022-07-29T03:39:20;3.00;;;2.40;;
15958;SDS011;8078;47.822;9.402;2022-07-29T03:41:49;3.65;;;2.42;;
15958;SDS011;8078;47.822;9.402;2022-07-29T03:44:19;2.85;;;2.50;;
15958;SDS011;8078;47.822;9.402;2022-07-29T03:46:46;4.47;;;2.50;;
15958;SDS011;8078;47.822;9.402;2022-07-29T03:49:15;7.28;;;2.35;;
15958;SDS011;8078;47.822;9.402;2022-07-29T03:51:41;3.38;;;2.67;;
15958;SDS011;8078;47.822;9.402;2022-07-29T03:54:07;3.08;;;2.78;;
15958;SDS011;8078;47.822;9.402;2022-07-29T03:56:34;3.30;;;3.00;;
15958;SDS011;8078;47.822;9.402;2022-07-29T03:59:04;4.65;;;2.78;;
15958;SDS011;8078;47.822;9.402;2022-07-29T04:01:32;2.95;;;2.65;;
15958;SDS011;8078;47.822;9.402;2022-07-29T04:03:59;3.90;;;3.00;;
15958;SDS011;8078;47.822;9.402;2022-07-29T04:06:30;4.55;;;3.10;;
15958;SDS011;8078;47.822;9.402;2022-07-29T04:09:09;3.50;;;2.70;;
15958;SDS011;8078;47.822;9.402;2022-07-29T04:11:36;3.97;;;2.80;;
15958;SDS011;8078;47.822;9.402;2022-07-29T04:14:03;3.53;;;2.90;;
15958;SDS011;8078;47.822;9.402;2022-07-29T04:16:29;3.30;;;3.00;;
15958;SDS011;8078;47.822;9.402;2022-07-29T04:18:54;3.05;;;2.85;;
15958;SDS011;8078;47.822;9.402;2022-07-29T04:21:20;4.18;;;3.00;;
15958;SDS011;8078;47.822;9.402;2022-07-29T04:23:46;5.55;;;2.80;;
15958;SDS011;8078;47.822;9.402;2022-07-29T04:26:14;4.30;;;2.58;;
15958;SDS011;8078;47.822;9.402;2022-07-29T04:28:41;3.28;;;2.92;;
15958;SDS011;8078;47.822;9.402;2022-07-29T04:31:07;3.22;;;2.65;;
15958;SDS011;8078;47.822;9.402;2022-07-29T04:33:33;2.95;;;2.60;;
15958;SDS011;8078;47.822;9.402;2022-07-29T04:35:59;3.08;;;2.38;;
15958;SDS011;8078;47.822;9.402;2022-07-29T04:38:24;3.00;;;2.70;;
15958;SDS011;8078;47.822;9.402;2022-07-29T04:40:50;3.22;;;2.70;;
15958;SDS011;8078;47.822;9.402;2022-07-29T04:43:15;6.95;;;2.80;;
15958;SDS011;8078;47.822;9.402;2022-07-29T04:45:41;3.17;;;2.47;;
15958;SDS011;8078;47.822;9.402;2022-07-29T04:48:07;2.65;;;2.38;;
15958;SDS011;8078;47.822;9.402;2022-07-29T04:50:32;2.60;;;2.40;;
15958;SDS011;8078;47.822;9.402;2022-07-29T04:52:58;3.22;;;2.90;;
15958;SDS011;8078;47.822;9.402;2022-07-29T04:55:24;2.70;;;2.40;;
15958;SDS011;8078;47.822;9.402;2022-07-29T04:57:50;5.93;;;2.65;;
15958;SDS011;8078;47.822;9.402;2022-07-29T05:00:16;4.35;;;3.05;;
15958;SDS011;8078;47.822;9.402;2022-07-29T05:02:41;2.92;;;2.65;;
15958;SDS011;8078;47.822;9.402;2022-07-29T05:05:07;2.83;;;2.60;;
15958;SDS011;8078;47.822;9.402;2022-07-29T05:07:33;3.67;;;2.97;;
15958;SDS011;8078;47.822;9.402;2022-07-29T05:09:58;2.88;;;2.60;;
15958;SDS011;8078;47.822;9.402;2022-07-29T05:12:24;3.45;;;3.15;;
15958;SDS011;8078;47.822;9.402;2022-07-29T05:14:50;3.15;;;2.85;;
15958;SDS011;8078;47.822;9.402;2022-07-29T05:17:15;2.88;;;2.35;;
15958;SDS011;8078;47.822;9.402;2022-07-29T05:19:41;2.85;;;2.65;;
15958;SDS011;8078;47.822;9.402;2022-07-29T05:22:07;3.45;;;3.15;;
15958;SDS011;8078;47.822;9.402;2022-07-29T05:24:32;3.25;;;2.95;;
15958;SDS011;8078;47.822;9.402;2022-07-29T05:26:58;3.58;;;3.10;;
15958;SDS011;8078;47.822;9.402;2022-07-29T05:29:24;4.72;;;2.97;;
15958;SDS011;8078;47.822;9.402;2022-07-29T05:31:49;3.85;;;2.92;;
15958;SDS011;8078;47.822;9.402;2022-07-29T05:34:16;3.40;;;2.90;;
15958;SDS011;8078;47.822;9.402;2022-07-29T05:36:42;4.38;;;3.25;;
15958;SDS011;8078;47.822;9.402;2022-07-29T05:39:07;3.42;;;3.13;;
15958;SDS011;8078;47.822;9.402;2022-07-29T05:41:33;3.67;;;3.35;;
15958;SDS011;8078;47.822;9.402;2022-07-29T05:43:58;3.17;;;2.92;;
15958;SDS011;8078;47.822;9.402;2022-07-29T05:46:24;4.05;;;3.42;;
15958;SDS011;8078;47.822;9.402;2022-07-29T05:48:50;3.35;;;2.95;;
15958;SDS011;8078;47.822;9.402;2022-07-29T05:51:15;3.53;;;3.22;;
15958;SDS011;8078;47.822;9.402;2022-07-29T05:53:41;3.90;;;3.15;;
15958;SDS011;8078;47.822;9.402;2022-07-29T05:56:06;3.28;;;2.97;;
15958;SDS011;8078;47.822;9.402;2022-07-29T05:58:32;3.67;;;3.38;;
15958;SDS011;8078;47.822;9.402;2022-07-29T06:00:58;5.50;;;3.25;;
15958;SDS011;8078;47.822;9.402;2022-07-29T06:03:25;4.78;;;3.40;;
15958;SDS011;8078;47.822;9.402;2022-07-29T06:05:51;6.88;;;3.42;;
15958;SDS011;8078;47.822;9.402;2022-07-29T06:08:16;3.97;;;2.80;;
15958;SDS011;8078;47.822;9.402;2022-07-29T06:10:42;4.13;;;3.55;;
15958;SDS011;8078;47.822;9.402;2022-07-29T06:13:08;4.15;;;3.45;;
15958;SDS011;8078;47.822;9.402;2022-07-29T06:15:34;3.40;;;3.10;;
15958;SDS011;8078;47.822;9.402;2022-07-29T06:18:00;5.22;;;3.38;;
15958;SDS011;8078;47.822;9.402;2022-07-29T06:20:26;3.97;;;2.85;;
15958;SDS011;8078;47.822;9.402;2022-07-29T06:22:56;5.43;;;2.92;;
15958;SDS011;8078;47.822;9.402;2022-07-29T06:25:22;3.10;;;2.80;;
15958;SDS011;8078;47.822;9.402;2022-07-29T06:27:47;3.00;;;2.80;;
15958;SDS011;8078;47.822;9.402;2022-07-29T06:30:13;3.97;;;2.80;;
15958;SDS011;8078;47.822;9.402;2022-07-29T06:32:38;4.13;;;3.03;;
15958;SDS011;8078;47.822;9.402;2022-07-29T06:35:04;2.92;;;2.63;;
15958;SDS011;8078;47.822;9.402;2022-07-29T06:37:30;3.20;;;2.90;;
15958;SDS011;8078;47.822;9.402;2022-07-29T06:39:56;3.30;;;3.00;;
15958;SDS011;8078;47.822;9.402;2022-07-29T06:42:47;3.70;;;2.90;;
15958;SDS011;8078;47.822;9.402;2022-07-29T06:45:13;2.85;;;2.60;;
15958;SDS011;8078;47.822;9.402;2022-07-29T06:47:41;3.22;;;2.30;;
15958;SDS011;8078;47.822;9.402;2022-07-29T06:50:06;2.70;;;2.50;;
15958;SDS011;8078;47.822;9.402;2022-07-29T06:52:36;3.03;;;2.72;;
15958;SDS011;8078;47.822;9.402;2022-07-29T06:55:01;4.15;;;2.85;;
15958;SDS011;8078;47.822;9.402;2022-07-29T06:57:27;4.35;;;2.25;;
15958;SDS011;8078;47.822;9.402;2022-07-29T06:59:53;2.83;;;2.53;;
15958;SDS011;8078;47.822;9.402;2022-07-29T07:02:20;3.38;;;2.72;;
15958;SDS011;8078;47.822;9.402;2022-07-29T07:04:46;3.22;;;2.42;;
15958;SDS011;8078;47.822;9.402;2022-07-29T07:07:12;3.50;;;2.80;;
15958;SDS011;8078;47.822;9.402;2022-07-29T07:09:37;2.75;;;2.55;;
15958;SDS011;8078;47.822;9.402;2022-07-29T07:12:03;2.72;;;2.50;;
15958;SDS011;8078;47.822;9.402;2022-07-29T07:14:28;3.05;;;2.75;;
15958;SDS011;8078;47.822;9.402;2022-07-29T07:16:54;5.88;;;2.97;;
15958;SDS011;8078;47.822;9.402;2022-07-29T07:19:20;5.72;;;2.80;;
15958;SDS011;8078;47.822;9.402;2022-07-29T07:21:45;3.78;;;2.63;;
15958;SDS011;8078;47.822;9.402;2022-07-29T07:24:11;2.70;;;2.50;;
15958;SDS011;8078;47.822;9.402;2022-07-29T07:26:36;5.55;;;2.75;;
15958;SDS011;8078;47.822;9.402;2022-07-29T07:29:04;2.90;;;2.65;;
15958;SDS011;8078;47.822;9.402;2022-07-29T07:31:29;3.90;;;2.80;;
15958;SDS011;8078;47.822;9.402;2022-07-29T07:33:55;2.85;;;2.55;;
15958;SDS011;8078;47.822;9.402;2022-07-29T07:36:21;2.60;;;2.40;;
15958;SDS011;8078;47.822;9.402;2022-07-29T07:38:47;6.95;;;3.05;;
15958;SDS011;8078;47.822;9.402;2022-07-29T07:41:12;4.47;;;3.10;;
15958;SDS011;8078;47.822;9.402;2022-07-29T07:43:38;4.05;;;2.80;;
15958;SDS011;8078;47.822;9.402;2022-07-29T07:46:04;3.28;;;2.90;;
15958;SDS011;8078;47.822;9.402;2022-07-29T07:48:29;3.50;;;3.20;;
15958;SDS011;8078;47.822;9.402;2022-07-29T07:50:55;3.55;;;2.83;;
15958;SDS011;8078;47.822;9.402;2022-07-29T07:53:21;3.90;;;2.80;;
15958;SDS011;8078;47.822;9.402;2022-07-29T07:55:46;3.00;;;2.80;;
15958;SDS011;8078;47.822;9.402;2022-07-29T07:58:12;2.60;;;2.40;;
15958;SDS011;8078;47.822;9.402;2022-07-29T08:00:37;5.18;;;2.70;;
15958;SDS011;8078;47.822;9.402;2022-07-29T08:03:03;2.88;;;2.53;;
15958;SDS011;8078;47.822;9.402;2022-07-29T08:05:29;4.18;;;2.83;;
15958;SDS011;8078;47.822;9.402;2022-07-29T08:07:55;3.72;;;2.60;;
15958;SDS011;8078;47.822;9.402;2022-07-29T08:10:20;5.05;;;2.70;;
15958;SDS011;8078;47.822;9.402;2022-07-29T08:13:05;4.88;;;3.10;;
15958;SDS011;8078;47.822;9.402;2022-07-29T08:15:32;3.25;;;2.95;;
15958;SDS011;8078;47.822;9.402;2022-07-29T08:17:58;3.95;;;2.78;;
15958;SDS011;8078;47.822;9.402;2022-07-29T08:20:23;6.05;;;2.83;;
15958;SDS011;8078;47.822;9.402;2022-07-29T08:22:49;2.70;;;2.45;;
15958;SDS011;8078;47.822;9.402;2022-07-29T08:25:15;3.13;;;2.83;;
15958;SDS011;8078;47.822;9.402;2022-07-29T08:27:40;3.45;;;3.15;;
15958;SDS011;8078;47.822;9.402;2022-07-29T08:30:06;2.72;;;2.50;;
15958;SDS011;8078;47.822;9.402;2022-07-29T08:32:32;3.47;;;2.95;;
15958;SDS011;8078;47.822;9.402;2022-07-29T08:34:57;3.00;;;2.80;;
15958;SDS011;8078;47.822;9.402;2022-07-29T08:37:23;3.25;;;2.75;;
15958;SDS011;8078;47.822;9.402;2022-07-29T08:39:49;2.95;;;2.75;;
15958;SDS011;8078;47.822;9.402;2022-07-29T08:42:14;3.95;;;2.90;;
15958;SDS011;8078;47.822;9.402;2022-07-29T08:44:41;3.25;;;2.53;;
15958;SDS011;8078;47.822;9.402;2022-07-29T08:47:07;2.80;;;2.53;;
15958;SDS011;8078;47.822;9.402;2022-07-29T08:49:34;5.05;;;2.58;;
15958;SDS011;8078;47.822;9.402;2022-07-29T08:52:01;4.15;;;2.72;;
15958;SDS011;8078;47.822;9.402;2022-07-29T08:54:27;4.78;;;3.00;;
15958;SDS011;8078;47.822;9.402;2022-07-29T08:56:54;3.95;;;2.90;;
15958;SDS011;8078;47.822;9.402;2022-07-29T08:59:22;3.58;;;2.58;;
15958;SDS011;8078;47.822;9.402;2022-07-29T09:01:50;2.92;;;2.63;;
15958;SDS011;8078;47.822;9.402;2022-07-29T09:04:18;4.40;;;3.17;;
15958;SDS011;8078;47.822;9.402;2022-07-29T09:06:46;3.33;;;2.95;;
15958;SDS011;8078;47.822;9.402;2022-07-29T09:09:15;5.55;;;3.60;;
15958;SDS011;8078;47.822;9.402;2022-07-29T09:11:41;3.60;;;3.30;;
15958;SDS011;8078;47.822;9.402;2022-07-29T09:14:07;3.72;;;2.80;;
15958;SDS011;8078;47.822;9.402;2022-07-29T09:16:49;2.60;;;2.40;;
15958;SDS011;8078;47.822;9.402;2022-07-29T09:19:22;5.35;;;3.50;;
15958;SDS011;8078;47.822;9.402;2022-07-29T09:21:52;3.63;;;3.00;;
15958;SDS011;8078;47.822;9.402;2022-07-29T09:24:35;3.30;;;3.00;;
15958;SDS011;8078;47.822;9.402;2022-07-29T09:27:22;5.50;;;3.45;;
15958;SDS011;8078;47.822;9.402;2022-07-29T09:29:57;5.18;;;3.30;;
15958;SDS011;8078;47.822;9.402;2022-07-29T09:32:24;5.57;;;3.90;;
15958;SDS011;8078;47.822;9.402;2022-07-29T09:34:51;4.05;;;3.63;;
15958;SDS011;8078;47.822;9.402;2022-07-29T09:37:40;5.85;;;4.30;;
15958;SDS011;8078;47.822;9.402;2022-07-29T09:40:19;5.03;;;4.30;;
15958;SDS011;8078;47.822;9.402;2022-07-29T09:42:46;9.65;;;4.60;;
15958;SDS011;8078;47.822;9.402;2022-07-29T09:45:12;4.70;;;4.30;;
15958;SDS011;8078;47.822;9.402;2022-07-29T09:47:51;5.63;;;4.80;;
15958;SDS011;8078;47.822;9.402;2022-07-29T09:50:16;5.95;;;4.45;;
15958;SDS011;8078;47.822;9.402;2022-07-29T09:52:49;5.32;;;4.65;;
15958;SDS011;8078;47.822;9.402;2022-07-29T09:55:17;5.60;;;4.95;;
15958;SDS011;8078;47.822;9.402;2022-07-29T09:57:43;7.63;;;5.38;;
15958;SDS011;8078;47.822;9.402;2022-07-29T10:00:13;6.75;;;5.25;;
15958;SDS011;8078;47.822;9.402;2022-07-29T10:02:44;5.45;;;4.93;;
15958;SDS011;8078;47.822;9.402;2022-07-29T10:07:51;5.63;;;4.85;;
15958;SDS011;8078;47.822;9.402;2022-07-29T10:10:19;5.93;;;5.40;;
15958;SDS011;8078;47.822;9.402;2022-07-29T10:12:50;9.10;;;5.57;;
15958;SDS011;8078;47.822;9.402;2022-07-29T10:15:18;6.63;;;5.68;;
15958;SDS011;8078;47.822;9.402;2022-07-29T10:17:45;8.88;;;5.55;;
15958;SDS011;8078;47.822;9.402;2022-07-29T10:20:12;6.00;;;5.32;;
15958;SDS011;8078;47.822;9.402;2022-07-29T10:22:39;5.90;;;5.30;;
15958;SDS011;8078;47.822;9.402;2022-07-29T10:25:06;6.47;;;5.80;;
15958;SDS011;8078;47.822;9.402;2022-07-29T10:27:32;7.03;;;6.22;;
15958;SDS011;8078;47.822;9.402;2022-07-29T10:29:59;7.00;;;6.25;;
15958;SDS011;8078;47.822;9.402;2022-07-29T10:44:00;11.10;;;5.70;;
15958;SDS011;8078;47.822;9.402;2022-07-29T10:46:34;7.50;;;6.60;;
15958;SDS011;8078;47.822;9.402;2022-07-29T10:57:14;3.63;;;3.10;;
15958;SDS011;8078;47.822;9.402;2022-07-29T11:05:05;4.85;;;3.75;;
15958;SDS011;8078;47.822;9.402;2022-07-29T11:07:33;5.00;;;3.80;;
15958;SDS011;8078;47.822;9.402;2022-07-29T11:10:42;3.35;;;3.05;;
15958;SDS011;8078;47.822;9.402;2022-07-29T11:12:49;5.07;;;3.97;;
15958;SDS011;8078;47.822;9.402;2022-07-29T11:15:20;5.95;;;3.88;;
15958;SDS011;8078;47.822;9.402;2022-07-29T11:29:00;4.57;;;3.22;;
15958;SDS011;8078;47.822;9.402;2022-07-29T11:31:46;4.28;;;3.20;;
15958;SDS011;8078;47.822;9.402;2022-07-29T11:39:33;3.78;;;2.85;;
15958;SDS011;8078;47.822;9.402;2022-07-29T11:44:57;3.08;;;2.70;;
15958;SDS011;8078;47.822;9.402;2022-07-29T11:47:23;3.90;;;2.55;;
15958;SDS011;8078;47.822;9.402;2022-07-29T11:49:50;5.30;;;2.88;;
15958;SDS011;8078;47.822;9.402;2022-07-29T11:52:17;4.60;;;3.35;;
15958;SDS011;8078;47.822;9.402;2022-07-29T11:54:43;3.08;;;2.75;;
15958;SDS011;8078;47.822;9.402;2022-07-29T11:57:11;3.08;;;2.78;;
15958;SDS011;8078;47.822;9.402;2022-07-29T11:59:40;5.13;;;2.70;;
15958;SDS011;8078;47.822;9.402;2022-07-29T12:02:07;3.67;;;2.42;;
15958;SDS011;8078;47.822;9.402;2022-07-29T12:04:33;4.15;;;2.63;;
15958;SDS011;8078;47.822;9.402;2022-07-29T12:07:12;5.03;;;2.88;;
15958;SDS011;8078;47.822;9.402;2022-07-29T12:09:38;3.10;;;2.80;;
15958;SDS011;8078;47.822;9.402;2022-07-29T12:12:04;5.03;;;3.10;;
15958;SDS011;8078;47.822;9.402;2022-07-29T12:14:31;2.97;;;2.67;;
15958;SDS011;8078;47.822;9.402;2022-07-29T12:16:57;3.70;;;2.60;;
15958;SDS011;8078;47.822;9.402;2022-07-29T12:19:24;4.47;;;3.00;;
15958;SDS011;8078;47.822;9.402;2022-07-29T12:21:52;4.72;;;2.83;;
15958;SDS011;8078;47.822;9.402;2022-07-29T12:24:19;3.83;;;2.70;;
15958;SDS011;8078;47.822;9.402;2022-07-29T12:26:50;2.97;;;2.67;;
15958;SDS011;8078;47.822;9.402;2022-07-29T12:29:17;2.67;;;2.45;;
15958;SDS011;8078;47.822;9.402;2022-07-29T12:31:43;3.83;;;2.50;;
15958;SDS011;8078;47.822;9.402;2022-07-29T12:34:13;4.65;;;2.65;;
15958;SDS011;8078;47.822;9.402;2022-07-29T12:36:41;4.60;;;2.72;;
15958;SDS011;8078;47.822;9.402;2022-07-29T12:39:07;3.40;;;3.10;;
15958;SDS011;8078;47.822;9.402;2022-07-29T12:41:34;3.45;;;3.15;;
15958;SDS011;8078;47.822;9.402;2022-07-29T12:44:00;4.57;;;3.58;;
15958;SDS011;8078;47.822;9.402;2022-07-29T12:46:25;6.50;;;3.30;;
15958;SDS011;8078;47.822;9.402;2022-07-29T12:48:52;5.53;;;3.60;;
15958;SDS011;8078;47.822;9.402;2022-07-29T12:51:27;5.32;;;3.80;;
15958;SDS011;8078;47.822;9.402;2022-07-29T12:54:01;6.03;;;4.43;;
15958;SDS011;8078;47.822;9.402;2022-07-29T12:56:38;5.47;;;4.00;;
15958;SDS011;8078;47.822;9.402;2022-07-29T12:59:21;3.30;;;3.03;;
15958;SDS011;8078;47.822;9.402;2022-07-29T13:01:47;5.28;;;4.05;;
15958;SDS011;8078;47.822;9.402;2022-07-29T13:04:31;4.70;;;4.20;;
15958;SDS011;8078;47.822;9.402;2022-07-29T13:06:58;4.80;;;4.30;;
15958;SDS011;8078;47.822;9.402;2022-07-29T13:09:42;4.90;;;3.88;;
15958;SDS011;8078;47.822;9.402;2022-07-29T13:12:11;4.35;;;3.40;;
15958;SDS011;8078;47.822;9.402;2022-07-29T13:14:45;3.97;;;3.22;;
15958;SDS011;8078;47.822;9.402;2022-07-29T13:17:18;5.82;;;3.85;;
15958;SDS011;8078;47.822;9.402;2022-07-29T13:19:52;5.22;;;3.55;;
15958;SDS011;8078;47.822;9.402;2022-07-29T13:22:29;5.32;;;3.60;;
15958;SDS011;8078;47.822;9.402;2022-07-29T13:24:55;4.45;;;3.78;;
15958;SDS011;8078;47.822;9.402;2022-07-29T13:27:26;5.65;;;3.42;;
15958;SDS011;8078;47.822;9.402;2022-07-29T13:29:57;5.05;;;3.08;;
15958;SDS011;8078;47.822;9.402;2022-07-29T13:32:25;3.97;;;3.20;;
15958;SDS011;8078;47.822;9.402;2022-07-29T13:34:52;4.57;;;3.45;;
15958;SDS011;8078;47.822;9.402;2022-07-29T13:37:19;4.93;;;3.67;;
15958;SDS011;8078;47.822;9.402;2022-07-29T13:39:44;4.03;;;3.33;;
15958;SDS011;8078;47.822;9.402;2022-07-29T13:42:10;3.90;;;3.53;;
15958;SDS011;8078;47.822;9.402;2022-07-29T13:44:38;4.35;;;3.75;;
15958;SDS011;8078;47.822;9.402;2022-07-29T13:47:05;3.80;;;3.33;;
15958;SDS011;8078;47.822;9.402;2022-07-29T13:49:31;5.53;;;3.58;;
15958;SDS011;8078;47.822;9.402;2022-07-29T13:51:56;6.00;;;4.10;;
15958;SDS011;8078;47.822;9.402;2022-07-29T13:54:22;6.50;;;3.42;;
15958;SDS011;8078;47.822;9.402;2022-07-29T13:56:49;3.95;;;3.42;;
15958;SDS011;8078;47.822;9.402;2022-07-29T13:59:15;4.32;;;3.53;;
15958;SDS011;8078;47.822;9.402;2022-07-29T14:01:41;4.72;;;3.95;;
15958;SDS011;8078;47.822;9.402;2022-07-29T14:04:07;5.10;;;3.92;;
15958;SDS011;8078;47.822;9.402;2022-07-29T14:06:33;3.97;;;3.67;;
15958;SDS011;8078;47.822;9.402;2022-07-29T14:08:59;5.68;;;3.88;;
15958;SDS011;8078;47.822;9.402;2022-07-29T14:11:24;4.45;;;4.05;;
15958;SDS011;8078;47.822;9.402;2022-07-29T14:13:50;5.10;;;4.60;;
15958;SDS011;8078;47.822;9.402;2022-07-29T14:16:16;7.20;;;4.25;;
15958;SDS011;8078;47.822;9.402;2022-07-29T14:18:41;4.93;;;4.25;;
15958;SDS011;8078;47.822;9.402;2022-07-29T14:21:07;4.95;;;4.40;;
15958;SDS011;8078;47.822;9.402;2022-07-29T14:23:33;4.43;;;4.03;;
15958;SDS011;8078;47.822;9.402;2022-07-29T14:25:59;5.68;;;4.35;;
15958;SDS011;8078;47.822;9.402;2022-07-29T14:28:25;6.22;;;4.32;;
15958;SDS011;8078;47.822;9.402;2022-07-29T14:30:50;7.85;;;4.47;;
15958;SDS011;8078;47.822;9.402;2022-07-29T14:33:16;4.10;;;1.98;;
15958;SDS011;8078;47.822;9.402;2022-07-29T14:35:42;1.38;;;1.27;;
15958;SDS011;8078;47.822;9.402;2022-07-29T14:38:08;2.17;;;1.85;;
15958;SDS011;8078;47.822;9.402;2022-07-29T14:40:34;3.65;;;1.70;;
15958;SDS011;8078;47.822;9.402;2022-07-29T14:42:59;1.50;;;1.40;;
15958;SDS011;8078;47.822;9.402;2022-07-29T14:45:26;3.80;;;1.95;;
15958;SDS011;8078;47.822;9.402;2022-07-29T14:47:53;1.98;;;1.85;;
15958;SDS011;8078;47.822;9.402;2022-07-29T14:50:18;2.80;;;2.13;;
15958;SDS011;8078;47.822;9.402;2022-07-29T14:52:44;4.95;;;2.60;;
15958;SDS011;8078;47.822;9.402;2022-07-29T14:55:09;2.72;;;2.35;;
15958;SDS011;8078;47.822;9.402;2022-07-29T14:57:35;3.70;;;2.58;;
15958;SDS011;8078;47.822;9.402;2022-07-29T15:00:01;10.90;;;4.15;;
15958;SDS011;8078;47.822;9.402;2022-07-29T15:02:28;3.15;;;2.85;;
15958;SDS011;8078;47.822;9.402;2022-07-29T15:04:54;6.38;;;3.25;;
15958;SDS011;8078;47.822;9.402;2022-07-29T15:07:19;6.15;;;3.35;;
15958;SDS011;8078;47.822;9.402;2022-07-29T15:09:45;5.13;;;3.90;;
15958;SDS011;8078;47.822;9.402;2022-07-29T15:12:10;4.68;;;3.30;;
15958;SDS011;8078;47.822;9.402;2022-07-29T15:14:36;5.85;;;3.63;;
15958;SDS011;8078;47.822;9.402;2022-07-29T15:17:02;5.10;;;3.65;;
15958;SDS011;8078;47.822;9.402;2022-07-29T15:19:28;5.82;;;3.65;;
15958;SDS011;8078;47.822;9.402;2022-07-29T15:21:53;5.78;;;3.80;;
15958;SDS011;8078;47.822;9.402;2022-07-29T15:24:19;6.47;;;3.67;;
15958;SDS011;8078;47.822;9.402;2022-07-29T15:26:46;4.60;;;3.90;;
15958;SDS011;8078;47.822;9.402;2022-07-29T15:29:12;5.55;;;4.40;;
15958;SDS011;8078;47.822;9.402;2022-07-29T15:31:38;7.75;;;4.50;;
15958;SDS011;8078;47.822;9.402;2022-07-29T15:34:04;5.57;;;4.47;;
15958;SDS011;8078;47.822;9.402;2022-07-29T15:36:30;6.88;;;5.05;;
15958;SDS011;8078;47.822;9.402;2022-07-29T15:38:55;6.45;;;4.80;;
15958;SDS011;8078;47.822;9.402;2022-07-29T15:41:21;6.00;;;4.68;;
15958;SDS011;8078;47.822;9.402;2022-07-29T15:43:47;5.65;;;4.68;;
15958;SDS011;8078;47.822;9.402;2022-07-29T15:46:14;6.13;;;5.53;;
15958;SDS011;8078;47.822;9.402;2022-07-29T15:49:00;7.85;;;4.88;;
15958;SDS011;8078;47.822;9.402;2022-07-29T15:51:26;6.75;;;4.93;;
15958;SDS011;8078;47.822;9.402;2022-07-29T15:53:52;6.25;;;5.15;;
15958;SDS011;8078;47.822;9.402;2022-07-29T15:56:18;6.97;;;6.18;;
15958;SDS011;8078;47.822;9.402;2022-07-29T15:58:43;8.65;;;6.25;;
15958;SDS011;8078;47.822;9.402;2022-07-29T16:01:09;10.02;;;6.18;;
15958;SDS011;8078;47.822;9.402;2022-07-29T16:03:35;7.30;;;6.53;;
15958;SDS011;8078;47.822;9.402;2022-07-29T16:06:01;7.95;;;6.88;;